Time;durP1;ratioP1;P1;durP2;ratioP2;P2;SDS_P1;SDS_P2;PMS_P1;PMS_P2;Temp;Humidity;BMP_temperature;BMP_pressure;BME280_temperature;BME280_humidity;BME280_pressure;Samples;Min_cycle;Max_cycle;Signal;HPM_P1;HPM_P2
2022/06/04 00:00:12;;;;;;;6.47;5.00;;;19.60;99.90;;;;;;4993961;28;20226;-53
2022/06/04 00:02:43;;;;;;;6.40;4.80;;;19.40;99.90;;;;;;4994126;28;20185;-56
2022/06/04 00:05:11;;;;;;;6.10;4.80;;;19.30;99.90;;;;;;4993827;28;20170;-52
2022/06/04 00:07:37;;;;;;;7.37;5.27;;;19.20;99.90;;;;;;4992500;28;20213;-53
2022/06/04 00:15:47;;;;;;;7.30;6.57;;;19.20;99.90;;;;;;4994014;28;20180;-56
2022/06/04 00:18:14;;;;;;;6.37;5.70;;;19.20;99.90;;;;;;4993560;28;20193;-53
2022/06/04 00:20:40;;;;;;;7.43;5.87;;;19.20;99.90;;;;;;4993671;28;20201;-56
2022/06/04 00:23:08;;;;;;;5.50;5.00;;;19.20;99.90;;;;;;4993764;28;20666;-58
2022/06/04 00:25:36;;;;;;;5.53;5.00;;;19.30;99.90;;;;;;4993232;28;20661;-56
2022/06/04 00:28:04;;;;;;;6.23;5.63;;;19.30;99.90;;;;;;4993557;28;20190;-57
2022/06/04 00:30:31;;;;;;;6.70;5.43;;;19.40;99.90;;;;;;4993772;28;20732;-55
2022/06/04 00:32:57;;;;;;;6.07;5.47;;;19.50;99.90;;;;;;4993618;28;20255;-57
2022/06/04 00:35:23;;;;;;;6.60;5.90;;;19.60;99.90;;;;;;4993243;28;20177;-56
2022/06/04 00:37:49;;;;;;;7.17;6.33;;;19.60;99.90;;;;;;4993443;28;20193;-56
2022/06/04 00:40:25;;;;;;;7.03;6.33;;;19.60;99.90;;;;;;4994657;28;20197;-54
2022/06/04 00:42:51;;;;;;;7.10;6.40;;;19.60;99.90;;;;;;4987924;28;20698;-51
2022/06/04 00:45:34;;;;;;;7.07;6.37;;;19.60;99.90;;;;;;4992823;28;20208;-53
2022/06/04 00:48:03;;;;;;;7.33;6.70;;;19.60;99.90;;;;;;4993170;28;20244;-50
2022/06/04 00:50:31;;;;;;;6.90;6.20;;;19.60;99.90;;;;;;4993139;28;20177;-50
2022/06/04 00:53:00;;;;;;;7.50;6.73;;;19.70;99.90;;;;;;4993165;28;20196;-53
2022/06/04 00:55:33;;;;;;;8.37;6.63;;;19.60;99.90;;;;;;4992679;28;20252;-53
2022/06/04 00:58:22;;;;;;;6.80;6.20;;;19.60;99.90;;;;;;4992950;28;20197;-52
2022/06/04 01:01:00;;;;;;;7.37;6.03;;;19.60;99.90;;;;;;4992966;28;20225;-53
2022/06/04 01:03:52;;;;;;;7.70;6.90;;;19.50;99.90;;;;;;4992863;28;20169;-51
2022/06/04 01:06:51;;;;;;;8.20;7.40;;;19.50;99.90;;;;;;4992920;28;20165;-49
2022/06/04 01:09:18;;;;;;;7.30;6.57;;;19.20;99.90;;;;;;4992584;28;20236;-52
2022/06/04 01:12:11;;;;;;;7.00;6.40;;;19.10;99.90;;;;;;4992658;28;20762;-52
2022/06/04 01:15:00;;;;;;;8.87;7.30;;;19.20;99.90;;;;;;4992291;28;20184;-50
2022/06/04 01:17:37;;;;;;;7.83;7.00;;;19.20;99.90;;;;;;4992492;28;20300;-54
2022/06/04 01:20:09;;;;;;;7.63;6.70;;;19.10;99.90;;;;;;4992476;28;20204;-50
2022/06/04 01:23:02;;;;;;;8.10;7.30;;;19.20;99.90;;;;;;4992323;28;20194;-51
2022/06/04 01:26:01;;;;;;;8.03;7.23;;;19.20;99.90;;;;;;4992265;28;20175;-51
2022/06/04 01:28:29;;;;;;;8.10;7.30;;;19.20;99.90;;;;;;4992501;28;20201;-50
2022/06/04 01:30:57;;;;;;;8.10;7.27;;;19.20;99.90;;;;;;4992535;28;20182;-52
2022/06/04 01:33:42;;;;;;;8.67;7.80;;;19.20;99.90;;;;;;4992335;28;20272;-51
2022/06/04 01:36:26;;;;;;;8.33;7.63;;;19.20;99.90;;;;;;4992406;28;20276;-51
2022/06/04 01:38:59;;;;;;;9.17;8.37;;;19.20;99.90;;;;;;4992526;28;20566;-51
2022/06/04 01:41:28;;;;;;;10.33;8.33;;;19.20;99.90;;;;;;4992350;28;20556;-50
2022/06/04 01:44:07;;;;;;;9.13;8.33;;;19.20;99.90;;;;;;4992028;28;20182;-55
2022/06/04 01:46:42;;;;;;;9.83;8.93;;;19.20;99.90;;;;;;4997119;28;20185;-56
2022/06/04 01:49:18;;;;;;;10.00;9.10;;;19.30;99.90;;;;;;4992041;28;20783;-52
2022/06/04 01:51:47;;;;;;;10.10;9.00;;;19.30;99.90;;;;;;4992241;28;20173;-50
2022/06/04 01:54:24;;;;;;;10.43;9.53;;;19.30;99.90;;;;;;4991903;28;20176;-54
2022/06/04 01:56:55;;;;;;;12.13;10.97;;;19.30;99.90;;;;;;4992051;28;20634;-55
2022/06/04 01:59:56;;;;;;;12.53;11.30;;;19.30;99.90;;;;;;4991933;28;20243;-54
2022/06/04 02:02:31;;;;;;;12.60;11.40;;;19.30;99.90;;;;;;4951085;29;20198;-54
2022/06/04 02:05:00;;;;;;;13.67;12.27;;;19.30;99.90;;;;;;4950924;29;20173;-50
2022/06/04 02:07:31;;;;;;;13.23;11.87;;;19.30;99.90;;;;;;4950817;28;20206;-53
2022/06/04 02:10:18;;;;;;;10.80;9.83;;;19.30;99.90;;;;;;5066087;22;20235;-50
2022/06/04 02:12:49;;;;;;;12.20;11.10;;;19.30;99.90;;;;;;5050992;28;20167;-49
2022/06/04 02:15:21;;;;;;;11.73;10.53;;;19.30;99.90;;;;;;5050879;28;20262;-52
2022/06/04 02:17:53;;;;;;;11.17;10.17;;;19.20;99.90;;;;;;5051196;28;20167;-51
2022/06/04 02:20:19;;;;;;;13.00;11.77;;;19.20;99.90;;;;;;5044828;28;20203;-49
2022/06/04 02:22:44;;;;;;;15.00;13.60;;;19.20;99.90;;;;;;5039958;28;20229;-50
2022/06/04 02:25:12;;;;;;;14.30;13.00;;;19.10;99.90;;;;;;5033164;28;20546;-54
2022/06/04 02:27:38;;;;;;;13.93;12.53;;;19.10;99.90;;;;;;5034320;28;20168;-52
2022/06/04 02:30:06;;;;;;;13.47;12.20;;;19.00;99.90;;;;;;5030805;28;20295;-52
2022/06/04 02:32:57;;;;;;;13.07;11.77;;;19.00;99.90;;;;;;5031102;28;20168;-55
2022/06/04 02:35:34;;;;;;;12.60;11.30;;;19.00;99.90;;;;;;5033628;28;20202;-52
2022/06/04 02:38:12;;;;;;;12.30;11.00;;;19.00;99.90;;;;;;5038745;28;20254;-51
2022/06/04 02:40:42;;;;;;;11.93;10.83;;;18.90;99.90;;;;;;5034850;28;20525;-54
2022/06/04 02:43:13;;;;;;;13.57;12.27;;;18.90;99.90;;;;;;5034964;28;20211;-49
2022/06/04 02:45:59;;;;;;;13.30;12.10;;;18.90;99.90;;;;;;5034566;28;20251;-52
2022/06/04 02:48:33;;;;;;;12.63;11.43;;;18.50;99.90;;;;;;5034730;28;20645;-49
2022/06/04 02:51:04;;;;;;;12.70;11.10;;;18.90;99.90;;;;;;5034921;28;20203;-50
2022/06/04 02:53:32;;;;;;;12.47;11.27;;;18.80;99.90;;;;;;5041034;28;20168;-54
2022/06/04 02:56:02;;;;;;;13.23;11.93;;;18.90;99.90;;;;;;5034577;28;20168;-53
2022/06/04 02:58:29;;;;;;;13.40;12.10;;;18.90;99.90;;;;;;5034490;28;20198;-53
2022/06/04 03:00:58;;;;;;;12.63;11.33;;;18.90;99.90;;;;;;5034467;28;20204;-49
2022/06/04 03:03:24;;;;;;;12.77;11.47;;;18.80;99.90;;;;;;5034412;28;20171;-53
2022/06/04 03:06:02;;;;;;;11.47;10.47;;;18.80;99.90;;;;;;5034415;28;20171;-50
2022/06/04 03:08:31;;;;;;;13.27;11.90;;;18.80;99.90;;;;;;5034258;28;20271;-52
2022/06/04 03:10:57;;;;;;;16.00;14.50;;;18.80;99.90;;;;;;5034300;28;20172;-56
2022/06/04 03:13:22;;;;;;;14.10;12.70;;;18.80;99.90;;;;;;5034128;28;20280;-56
2022/06/04 03:15:48;;;;;;;15.50;14.00;;;18.80;99.90;;;;;;5034292;28;20179;-54
2022/06/04 03:18:15;;;;;;;13.73;12.33;;;19.10;99.90;;;;;;5034002;28;20179;-51
2022/06/04 03:20:41;;;;;;;12.83;11.53;;;18.70;99.90;;;;;;5034233;28;20661;-55
2022/06/04 03:23:07;;;;;;;14.27;11.67;;;18.70;99.90;;;;;;5034015;28;20179;-53
2022/06/04 03:25:37;;;;;;;10.73;9.80;;;18.70;99.90;;;;;;5033890;28;20301;-52
2022/06/04 03:28:04;;;;;;;11.43;10.43;;;18.70;99.90;;;;;;5039351;28;20281;-55
2022/06/04 03:30:30;;;;;;;10.93;9.93;;;18.70;99.90;;;;;;5033928;28;20201;-54
2022/06/04 03:32:56;;;;;;;11.23;10.23;;;18.60;99.90;;;;;;5033992;28;20172;-55
2022/06/04 03:35:23;;;;;;;10.20;9.30;;;18.70;99.90;;;;;;5033701;28;20255;-55
2022/06/04 03:37:49;;;;;;;10.70;9.70;;;18.60;99.90;;;;;;5033659;28;20184;-55
2022/06/04 03:40:15;;;;;;;10.77;9.87;;;18.60;99.90;;;;;;5033702;28;20214;-57
2022/06/04 03:42:41;;;;;;;10.37;9.37;;;18.60;99.90;;;;;;5033671;28;20164;-56
2022/06/04 03:45:09;;;;;;;10.63;9.73;;;18.50;99.90;;;;;;5033528;28;20176;-55
2022/06/04 03:47:38;;;;;;;11.53;10.43;;;18.50;99.90;;;;;;5033401;28;20239;-51
2022/06/04 03:50:10;;;;;;;11.47;10.47;;;18.60;99.90;;;;;;5033564;28;20195;-51
2022/06/04 03:52:36;;;;;;;12.17;10.97;;;18.60;99.90;;;;;;5033445;28;20199;-55
2022/06/04 03:55:02;;;;;;;11.97;10.87;;;18.60;99.90;;;;;;5033354;28;20172;-56
2022/06/04 03:57:52;;;;;;;11.57;10.57;;;18.60;99.90;;;;;;5021336;28;20183;-54
2022/06/04 04:00:23;;;;;;;11.50;10.50;;;18.70;99.90;;;;;;5013506;28;20193;-55
2022/06/04 04:02:54;;;;;;;12.27;11.03;;;18.70;99.90;;;;;;5016494;28;20183;-55
2022/06/04 04:05:22;;;;;;;11.47;10.33;;;18.70;99.90;;;;;;5033066;28;20527;-53
2022/06/04 04:07:50;;;;;;;10.87;9.87;;;18.70;99.90;;;;;;5033584;28;20218;-52
2022/06/04 04:10:16;;;;;;;11.43;10.43;;;18.80;99.90;;;;;;5033000;28;20214;-51
2022/06/04 04:12:42;;;;;;;11.27;10.17;;;18.80;99.90;;;;;;5033287;28;20180;-55
2022/06/04 04:15:10;;;;;;;11.60;10.60;;;18.80;99.90;;;;;;5031235;28;20234;-56
2022/06/04 04:17:36;;;;;;;11.73;10.63;;;18.90;99.90;;;;;;5032877;28;20271;-54
2022/06/04 04:20:04;;;;;;;12.03;10.83;;;18.90;99.90;;;;;;5032397;28;20207;-52
2022/06/04 04:22:30;;;;;;;11.73;10.63;;;19.00;99.90;;;;;;5033106;28;20204;-51
2022/06/04 04:24:56;;;;;;;13.57;12.30;;;19.10;99.90;;;;;;5024263;28;20227;-56
2022/06/04 04:27:21;;;;;;;13.97;12.67;;;19.10;99.90;;;;;;5014366;28;20180;-56
2022/06/04 04:29:47;;;;;;;13.03;11.80;;;19.10;99.90;;;;;;5012941;28;20867;-57
2022/06/04 04:32:12;;;;;;;14.80;13.20;;;19.10;99.90;;;;;;5013150;28;20697;-52
2022/06/04 04:34:38;;;;;;;12.80;11.70;;;19.20;99.90;;;;;;5013184;28;20227;-58
2022/06/04 04:37:04;;;;;;;15.27;13.87;;;19.20;99.90;;;;;;5036072;28;20267;-56
2022/06/04 04:39:29;;;;;;;14.47;12.73;;;19.20;99.90;;;;;;5032588;28;20208;-54
2022/06/04 04:41:55;;;;;;;13.23;11.93;;;19.30;99.90;;;;;;5032684;28;20270;-54
2022/06/04 04:44:21;;;;;;;12.10;11.00;;;19.30;99.90;;;;;;5031957;28;20175;-58
2022/06/04 04:46:49;;;;;;;11.10;10.10;;;19.20;99.90;;;;;;5032525;28;20172;-55
2022/06/04 04:49:15;;;;;;;11.93;10.73;;;19.20;99.90;;;;;;5032434;28;20184;-57
2022/06/04 04:51:40;;;;;;;11.03;9.93;;;19.20;99.90;;;;;;5032368;28;20633;-56
2022/06/04 04:54:06;;;;;;;10.50;9.50;;;19.20;99.90;;;;;;5032399;28;20172;-55
2022/06/04 04:56:32;;;;;;;9.30;8.50;;;19.20;99.90;;;;;;5014677;28;20216;-54
2022/06/04 04:58:57;;;;;;;9.73;8.80;;;19.20;99.90;;;;;;5031433;28;20198;-55
2022/06/04 05:01:26;;;;;;;14.47;9.50;;;19.10;99.90;;;;;;5032115;28;20200;-56
2022/06/04 05:03:52;;;;;;;8.23;7.53;;;19.10;99.90;;;;;;5032261;28;20172;-58
2022/06/04 05:06:19;;;;;;;8.00;7.30;;;19.20;99.90;;;;;;5032170;28;20263;-57
2022/06/04 05:08:46;;;;;;;8.23;7.53;;;19.30;99.90;;;;;;5031906;28;20200;-56
2022/06/04 05:11:17;;;;;;;40.10;9.33;;;19.50;99.90;;;;;;5032070;28;20569;-53
2022/06/04 05:13:44;;;;;;;11.70;7.40;;;19.50;99.90;;;;;;5031609;28;20176;-56
2022/06/04 05:16:10;;;;;;;7.77;7.07;;;19.50;99.90;;;;;;5031997;28;20186;-56
2022/06/04 05:18:35;;;;;;;7.50;6.80;;;19.70;99.90;;;;;;5031756;28;20199;-56
2022/06/04 05:21:23;;;;;;;7.37;6.77;;;19.80;99.90;;;;;;5031755;28;20211;-58
2022/06/04 05:23:50;;;;;;;7.33;6.73;;;19.90;99.90;;;;;;5032834;28;20172;-54
2022/06/04 05:26:17;;;;;;;7.60;6.90;;;19.90;99.90;;;;;;5031837;28;20660;-52
2022/06/04 05:28:42;;;;;;;7.23;6.63;;;19.90;99.90;;;;;;5031629;28;20278;-50
2022/06/04 05:31:08;;;;;;;8.90;6.80;;;19.90;99.90;;;;;;5031766;28;20267;-54
2022/06/04 05:33:34;;;;;;;9.23;8.33;;;19.70;99.90;;;;;;5031449;28;20193;-51
2022/06/04 05:36:01;;;;;;;7.40;6.80;;;19.50;99.90;;;;;;5031600;28;20713;-52
2022/06/04 05:38:26;;;;;;;8.83;8.03;;;19.60;99.90;;;;;;5031474;28;20176;-50
2022/06/04 05:41:07;;;;;;;7.47;6.80;;;19.50;99.90;;;;;;5031493;28;20203;-56
2022/06/04 05:43:34;;;;;;;8.60;7.80;;;19.70;99.90;;;;;;5031405;28;20225;-55
2022/06/04 05:46:03;;;;;;;8.27;7.57;;;19.90;99.90;;;;;;5031471;28;20257;-53
2022/06/04 05:48:29;;;;;;;8.47;7.60;;;20.00;99.90;;;;;;5031260;28;20619;-54
2022/06/04 05:50:55;;;;;;;8.33;7.63;;;19.90;99.90;;;;;;5031309;28;20180;-50
2022/06/04 05:53:22;;;;;;;8.60;7.70;;;20.10;99.90;;;;;;5031171;28;20191;-56
2022/06/04 05:55:49;;;;;;;8.10;7.40;;;20.20;99.90;;;;;;5031231;28;20179;-52
2022/06/04 05:58:14;;;;;;;7.67;6.97;;;20.00;99.90;;;;;;5031195;28;20227;-49
2022/06/04 06:00:40;;;;;;;8.53;7.77;;;19.80;99.90;;;;;;5031203;28;20580;-51
2022/06/04 06:03:06;;;;;;;7.97;7.27;;;20.10;99.90;;;;;;5031361;28;20171;-55
2022/06/04 06:05:32;;;;;;;8.97;8.07;;;;;;;;;;5031078;28;20302;-54
2022/06/04 06:07:59;;;;;;;7.40;6.70;;;20.40;99.90;;;;;;5031240;28;20761;-54
2022/06/04 06:10:24;;;;;;;7.70;7.00;;;20.30;99.90;;;;;;5012200;28;20223;-55
2022/06/04 06:12:50;;;;;;;9.23;8.43;;;20.50;99.90;;;;;;5031287;28;20176;-57
2022/06/04 06:15:16;;;;;;;7.77;7.07;;;20.20;99.90;;;;;;5031112;28;20226;-51
2022/06/04 06:17:41;;;;;;;8.07;7.37;;;20.60;99.90;;;;;;5031246;28;20179;-53
2022/06/04 06:20:08;;;;;;;9.60;7.30;;;20.60;99.90;;;;;;5030716;28;20657;-55
2022/06/04 06:22:35;;;;;;;8.67;7.87;;;20.60;99.90;;;;;;5030994;28;20183;-53
2022/06/04 06:25:05;;;;;;;7.70;6.90;;;20.60;99.90;;;;;;5030776;28;20187;-54
2022/06/04 06:27:31;;;;;;;6.90;6.30;;;20.70;99.90;;;;;;5030807;28;20168;-54
2022/06/04 06:29:56;;;;;;;7.33;6.63;;;20.80;99.90;;;;;;5030816;28;20732;-49
2022/06/04 06:32:23;;;;;;;7.20;6.50;;;20.90;99.90;;;;;;5030779;28;20230;-50
2022/06/04 06:34:50;;;;;;;6.13;5.53;;;20.90;99.90;;;;;;5030462;28;20168;-53
2022/06/04 06:37:16;;;;;;;5.97;5.30;;;21.00;99.90;;;;;;5030382;28;20191;-53
2022/06/04 06:39:42;;;;;;;6.27;5.63;;;21.00;99.90;;;;;;5030454;28;20234;-50
2022/06/04 06:42:07;;;;;;;5.80;5.20;;;;;;;;;;5030499;28;20250;-50
2022/06/04 06:44:34;;;;;;;5.93;4.80;;;;;;;;;;5030276;28;20168;-52
2022/06/04 06:46:59;;;;;;;5.18;4.68;;;21.10;99.90;;;;;;5030365;28;20176;-53
2022/06/04 06:49:28;;;;;;;4.65;4.25;;;21.30;99.90;;;;;;5030284;28;20192;-56
2022/06/04 06:51:56;;;;;;;4.55;4.15;;;21.40;99.90;;;;;;5035651;28;20191;-51
2022/06/04 06:54:26;;;;;;;4.50;4.10;;;21.60;99.90;;;;;;5030898;28;20263;-51
2022/06/04 06:56:53;;;;;;;5.70;4.63;;;21.70;99.90;;;;;;5030449;28;20631;-52
2022/06/04 06:59:20;;;;;;;4.30;4.00;;;21.80;99.90;;;;;;5030412;28;20201;-50
2022/06/04 07:01:48;;;;;;;4.47;4.07;;;21.70;99.90;;;;;;5030401;28;20193;-51
2022/06/04 07:04:14;;;;;;;4.30;3.90;;;21.60;99.90;;;;;;5030069;28;20188;-54
2022/06/04 07:06:45;;;;;;;3.75;3.45;;;21.60;99.90;;;;;;5030343;28;20178;-49
2022/06/04 07:09:17;;;;;;;4.35;3.95;;;21.70;99.90;;;;;;5030298;28;20209;-51
2022/06/04 07:11:43;;;;;;;3.83;3.53;;;21.70;99.90;;;;;;5030487;28;20176;-54
2022/06/04 07:14:09;;;;;;;4.10;3.70;;;21.70;99.90;;;;;;5030106;28;20255;-51
2022/06/04 07:16:35;;;;;;;4.32;3.58;;;21.60;99.90;;;;;;5030189;28;20608;-52
2022/06/04 07:19:01;;;;;;;4.30;3.58;;;21.70;99.90;;;;;;5030627;28;20205;-56
2022/06/04 07:21:27;;;;;;;3.78;3.47;;;21.70;99.90;;;;;;5031917;28;20598;-54
2022/06/04 07:23:53;;;;;;;3.63;3.33;;;21.80;99.90;;;;;;5033664;28;20180;-53
2022/06/04 07:26:19;;;;;;;3.95;3.45;;;21.80;99.90;;;;;;5033804;28;20177;-53
2022/06/04 07:28:45;;;;;;;3.67;3.38;;;21.70;99.90;;;;;;5033697;28;20190;-53
2022/06/04 07:31:12;;;;;;;3.17;2.97;;;21.80;99.90;;;;;;5033751;28;20640;-53
2022/06/04 07:33:41;;;;;;;3.47;3.17;;;21.70;99.90;;;;;;5033487;28;20171;-53
2022/06/04 07:36:06;;;;;;;3.58;2.83;;;21.80;99.90;;;;;;5033887;28;20587;-52
2022/06/04 07:38:32;;;;;;;3.85;2.90;;;21.80;99.90;;;;;;5033549;28;20194;-54
2022/06/04 07:40:57;;;;;;;3.60;3.30;;;21.80;99.90;;;;;;5033722;28;20214;-50
2022/06/04 07:43:23;;;;;;;3.47;3.13;;;21.90;99.90;;;;;;5033520;28;20665;-53
2022/06/04 07:45:49;;;;;;;3.25;2.80;;;21.80;99.90;;;;;;5033389;28;20636;-50
2022/06/04 07:48:14;;;;;;;3.25;2.97;;;22.00;99.90;;;;;;5033414;28;20171;-54
2022/06/04 07:50:40;;;;;;;3.10;2.90;;;22.00;99.90;;;;;;5033585;28;20206;-50
2022/06/04 07:53:06;;;;;;;4.85;2.80;;;22.10;99.90;;;;;;5033341;28;20175;-55
2022/06/04 07:55:33;;;;;;;2.83;2.63;;;22.20;99.90;;;;;;5033099;28;20671;-51
2022/06/04 07:57:58;;;;;;;3.08;2.53;;;22.20;99.90;;;;;;5033426;28;20209;-51
2022/06/04 08:00:24;;;;;;;3.00;2.70;;;22.40;99.90;;;;;;5033193;28;20549;-51
2022/06/04 08:02:51;;;;;;;1.80;1.70;;;22.70;99.90;;;;;;5033294;28;20507;-52
2022/06/04 08:05:18;;;;;;;2.42;2.00;;;22.80;99.90;;;;;;5033055;28;20226;-49
2022/06/04 08:07:43;;;;;;;1.67;1.58;;;23.10;99.90;;;;;;5033251;28;20251;-51
2022/06/04 08:10:11;;;;;;;2.28;1.83;;;23.10;99.90;;;;;;5031563;22;20320;-54
2022/06/04 08:12:46;;;;;;;2.10;1.90;;;23.20;99.90;;;;;;5005223;28;20601;-57
2022/06/04 08:15:14;;;;;;;2.03;1.77;;;23.20;99.90;;;;;;4995772;28;20237;-56
2022/06/04 08:17:40;;;;;;;3.53;2.28;;;23.20;99.90;;;;;;4993333;28;20176;-52
2022/06/04 08:20:06;;;;;;;2.20;2.10;;;23.10;99.90;;;;;;4981352;28;20194;-52
2022/06/04 08:22:32;;;;;;;2.40;2.20;;;23.20;99.90;;;;;;4973979;28;20544;-57
2022/06/04 08:24:58;;;;;;;2.90;2.70;;;23.40;99.90;;;;;;4973694;28;20177;-56
2022/06/04 08:27:24;;;;;;;3.20;2.90;;;23.60;99.90;;;;;;4983713;28;20639;-56
2022/06/04 08:29:50;;;;;;;4.50;2.70;;;23.70;99.90;;;;;;4992862;28;20690;-54
2022/06/04 08:32:16;;;;;;;3.35;3.05;;;23.70;99.90;;;;;;4992449;28;20197;-53
2022/06/04 08:34:41;;;;;;;3.60;3.17;;;23.70;99.90;;;;;;4992835;28;20182;-56
2022/06/04 08:37:07;;;;;;;3.10;2.80;;;23.70;99.90;;;;;;4993136;28;20223;-56
2022/06/04 08:39:33;;;;;;;5.10;3.30;;;23.70;99.90;;;;;;4992955;28;20193;-55
2022/06/04 08:41:58;;;;;;;3.50;3.20;;;23.70;99.90;;;;;;4993037;28;20568;-58
2022/06/04 08:44:48;;;;;;;3.38;3.05;;;23.60;99.90;;;;;;4973751;28;20880;-57
2022/06/04 08:47:20;;;;;;;3.17;2.88;;;23.70;99.90;;;;;;4972233;28;20212;-54
2022/06/04 08:50:11;;;;;;;4.03;3.47;;;23.70;99.90;;;;;;4973424;28;20225;-53
2022/06/04 08:52:54;;;;;;;4.22;3.10;;;23.70;99.90;;;;;;4972920;28;20281;-58
2022/06/04 08:58:48;;;;;;;3.65;3.35;;;23.60;99.90;;;;;;4973446;28;20557;-51
2022/06/04 09:01:31;;;;;;;3.67;3.38;;;23.70;99.90;;;;;;4973453;28;20197;-54
2022/06/04 09:04:28;;;;;;;3.30;3.00;;;23.80;99.90;;;;;;4973017;28;20168;-56
2022/06/04 09:06:59;;;;;;;3.40;3.10;;;23.80;99.90;;;;;;4973244;28;20170;-56
2022/06/04 09:09:55;;;;;;;3.22;3.00;;;23.80;99.90;;;;;;4972798;28;20205;-54
2022/06/04 09:12:34;;;;;;;4.32;3.08;;;24.10;99.90;;;;;;4973233;28;20158;-53
2022/06/04 09:15:27;;;;;;;3.40;2.95;;;24.30;99.90;;;;;;4972875;28;20197;-55
2022/06/04 09:17:56;;;;;;;3.50;2.65;;;24.50;99.90;;;;;;4967712;28;20265;-52
2022/06/04 09:20:26;;;;;;;3.33;2.70;;;24.50;99.90;;;;;;4971532;28;20205;-58
2022/06/04 09:22:58;;;;;;;2.60;2.40;;;24.60;99.90;;;;;;4972857;28;20162;-57
2022/06/04 09:25:28;;;;;;;3.20;2.90;;;24.70;99.90;;;;;;4972696;28;20174;-56
2022/06/04 09:28:18;;;;;;;2.67;2.45;;;25.00;99.90;;;;;;4972781;28;20170;-58
2022/06/04 09:30:55;;;;;;;3.25;2.60;;;25.40;99.90;;;;;;4972753;28;20722;-57
2022/06/04 09:33:40;;;;;;;3.38;2.88;;;25.60;99.90;;;;;;4972738;28;20615;-54
2022/06/04 09:36:11;;;;;;;3.15;2.83;;;25.60;99.90;;;;;;4972878;28;20209;-57
2022/06/04 09:38:37;;;;;;;4.05;3.13;;;25.60;99.90;;;;;;4972559;28;20166;-56
2022/06/04 09:41:05;;;;;;;2.70;2.40;;;25.50;99.90;;;;;;4972501;28;20205;-56
2022/06/04 09:43:32;;;;;;;2.60;1.90;;;25.50;99.90;;;;;;4972066;28;20269;-58
2022/06/04 09:46:02;;;;;;;2.45;1.90;;;25.30;99.90;;;;;;4972609;28;20230;-52
2022/06/04 09:48:34;;;;;;;2.67;2.30;;;25.20;99.90;;;;;;4972664;28;20216;-54
2022/06/04 09:51:03;;;;;;;4.03;2.20;;;25.20;99.90;;;;;;4972334;28;20248;-54
2022/06/04 09:53:32;;;;;;;3.35;2.17;;;25.20;99.90;;;;;;4972204;28;20178;-57
2022/06/04 09:56:14;;;;;;;4.28;2.10;;;25.30;99.90;;;;;;4972436;28;20317;-54
2022/06/04 09:58:46;;;;;;;3.22;2.05;;;25.30;99.90;;;;;;4972404;28;20154;-57
2022/06/04 10:01:14;;;;;;;1.77;1.50;;;25.20;99.90;;;;;;4972316;28;20198;-56
2022/06/04 10:03:40;;;;;;;1.60;1.50;;;25.20;99.90;;;;;;4972365;28;20327;-59
2022/06/04 10:06:13;;;;;;;2.97;1.50;;;25.30;99.90;;;;;;4972474;28;20174;-56
2022/06/04 10:11:37;;;;;;;2.10;1.63;;;25.50;99.90;;;;;;4972348;28;20189;-59
2022/06/04 10:14:03;;;;;;;4.22;1.70;;;25.70;99.90;;;;;;4971767;28;20178;-55
2022/06/04 10:16:40;;;;;;;2.70;1.80;;;25.80;99.90;;;;;;4972333;28;20193;-58
2022/06/04 10:19:12;;;;;;;2.28;2.00;;;25.80;99.90;;;;;;4972152;28;20244;-57
2022/06/04 10:21:41;;;;;;;4.22;1.80;;;25.90;99.90;;;;;;4971981;28;20206;-56
2022/06/04 10:24:28;;;;;;;3.15;2.00;;;26.00;99.90;;;;;;4971956;28;20827;-54
2022/06/04 10:27:09;;;;;;;2.55;1.70;;;25.90;99.90;;;;;;4971854;28;20178;-53
2022/06/04 10:29:56;;;;;;;2.72;1.90;;;25.90;99.90;;;;;;4971848;28;20205;-57
2022/06/04 10:32:36;;;;;;;1.90;1.80;;;26.10;99.90;;;;;;4972150;28;20659;-57
2022/06/04 10:35:14;;;;;;;3.20;1.73;;;26.20;99.90;;;;;;4971763;28;20520;-54
2022/06/04 10:37:56;;;;;;;2.58;1.65;;;26.40;99.90;;;;;;4972124;28;20158;-57
2022/06/04 10:40:41;;;;;;;4.63;2.22;;;26.60;99.90;;;;;;4971893;28;20206;-54
2022/06/04 10:43:22;;;;;;;4.18;1.65;;;26.70;99.90;;;;;;4971748;28;20186;-56
2022/06/04 10:46:18;;;;;;;3.17;2.13;;;26.80;99.90;;;;;;4971950;28;20181;-57
2022/06/04 10:49:05;;;;;;;2.05;1.60;;;26.60;99.90;;;;;;4971817;28;20501;-60
2022/06/04 10:51:47;;;;;;;4.22;1.75;;;26.60;99.90;;;;;;4971761;28;20547;-57
2022/06/04 10:54:22;;;;;;;4.63;1.85;;;26.70;99.90;;;;;;4971650;28;20750;-54
2022/06/04 10:57:24;;;;;;;2.72;1.77;;;27.00;99.90;;;;;;4973821;28;20162;-54
2022/06/04 11:00:02;;;;;;;3.17;2.10;;;27.10;99.90;;;;;;4975373;28;20697;-49
2022/06/04 11:02:34;;;;;;;2.50;1.75;;;27.10;99.90;;;;;;4975794;28;20209;-54
2022/06/04 11:05:03;;;;;;;2.38;1.80;;;27.00;99.90;;;;;;4975029;28;20169;-58
2022/06/04 11:07:35;;;;;;;1.95;1.60;;;27.20;99.90;;;;;;4974011;28;20182;-53
2022/06/04 11:10:05;;;;;;;2.30;1.90;;;27.60;99.90;;;;;;4974915;28;20202;-54
2022/06/04 11:12:44;;;;;;;2.08;1.88;;;28.00;99.90;;;;;;4975111;28;20217;-54
2022/06/04 11:15:17;;;;;;;2.50;1.88;;;28.20;99.90;;;;;;4974894;28;20531;-53
2022/06/04 11:18:12;;;;;;;3.67;2.05;;;28.30;99.90;;;;;;4975115;28;20185;-56
2022/06/04 11:21:04;;;;;;;2.78;2.30;;;28.20;99.90;;;;;;4966959;28;20566;-56
2022/06/04 11:23:54;;;;;;;3.40;2.22;;;28.60;99.90;;;;;;4966704;28;20218;-50
2022/06/04 11:26:51;;;;;;;2.05;1.90;;;29.00;99.90;;;;;;4974966;28;20643;-54
2022/06/04 11:29:18;;;;;;;2.75;1.80;;;29.00;99.90;;;;;;4915029;29;20222;-52
2022/06/04 11:32:08;;;;;;;2.88;2.42;;;28.70;99.90;;;;;;4915127;29;20188;-53
2022/06/04 11:35:08;;;;;;;3.05;2.33;;;28.50;99.90;;;;;;4914699;29;20313;-55
2022/06/04 11:37:45;;;;;;;3.42;2.10;;;28.50;99.90;;;;;;4915010;29;20266;-54
2022/06/04 11:40:44;;;;;;;3.22;2.53;;;28.70;99.90;;;;;;4914761;29;20294;-56
2022/06/04 11:43:22;;;;;;;2.42;2.10;;;28.80;99.90;;;;;;4914910;29;20232;-56
2022/06/04 11:46:00;;;;;;;2.42;2.22;;;28.90;99.90;;;;;;4914790;29;20178;-56
2022/06/04 11:48:41;;;;;;;3.42;2.40;;;28.90;99.90;;;;;;4914899;29;20156;-54
2022/06/04 11:51:43;;;;;;;2.40;2.20;;;28.90;99.90;;;;;;4914939;29;20176;-57
2022/06/04 11:54:20;;;;;;;2.55;2.03;;;29.00;99.90;;;;;;4914523;29;20192;-55
2022/06/04 11:56:58;;;;;;;3.83;2.60;;;29.10;99.90;;;;;;4914863;29;20180;-54
2022/06/04 11:59:31;;;;;;;2.42;2.20;;;28.90;99.90;;;;;;4914659;29;20204;-56
2022/06/04 12:02:14;;;;;;;5.35;2.83;;;28.80;99.90;;;;;;4914516;29;20230;-57
2022/06/04 12:04:59;;;;;;;4.28;2.50;;;28.60;99.90;;;;;;4914424;29;20168;-55
2022/06/04 12:07:36;;;;;;;5.18;2.50;;;28.40;99.90;;;;;;4974305;28;20158;-54
2022/06/04 12:10:08;;;;;;;2.70;2.50;;;28.40;99.90;;;;;;4973979;28;20225;-53
2022/06/04 12:13:03;;;;;;;2.47;2.20;;;28.40;99.90;;;;;;4974423;28;20174;-56
2022/06/04 12:16:03;;;;;;;4.15;2.60;;;28.40;99.90;;;;;;4973959;28;20265;-54
2022/06/04 12:18:35;;;;;;;3.90;2.47;;;28.60;99.90;;;;;;4974038;28;20532;-54
2022/06/04 12:24:20;;;;;;;3.83;2.30;;;29.20;99.90;;;;;;4974089;28;20220;-55
2022/06/04 12:26:48;;;;;;;4.22;2.53;;;29.40;99.90;;;;;;4973991;28;20183;-56
2022/06/04 12:29:31;;;;;;;4.40;2.47;;;29.30;99.90;;;;;;4973635;28;20533;-57
2022/06/04 12:32:02;;;;;;;6.43;2.25;;;28.90;99.90;;;;;;4973942;28;20166;-55
2022/06/04 12:34:34;;;;;;;2.40;2.20;;;28.70;99.90;;;;;;4973630;28;20174;-51
2022/06/04 12:37:01;;;;;;;3.80;2.30;;;28.60;99.90;;;;;;4973712;28;20170;-56
2022/06/04 12:39:35;;;;;;;3.28;2.55;;;28.70;99.90;;;;;;4973596;28;20201;-55
2022/06/04 12:42:14;;;;;;;3.63;2.28;;;28.60;99.90;;;;;;4973623;28;20671;-53
2022/06/04 12:44:43;;;;;;;2.97;2.30;;;28.60;99.90;;;;;;4966611;28;20170;-54
2022/06/04 12:47:21;;;;;;;5.45;2.22;;;28.70;99.90;;;;;;4973464;28;20170;-54
2022/06/04 12:49:56;;;;;;;3.45;2.00;;;28.80;99.90;;;;;;4973505;28;20197;-54
2022/06/04 12:52:40;;;;;;;2.72;1.88;;;28.90;99.90;;;;;;4973534;28;20169;-56
2022/06/04 12:55:14;;;;;;;2.92;2.25;;;28.80;99.90;;;;;;4973191;28;20189;-53
2022/06/04 12:57:48;;;;;;;2.78;2.22;;;28.60;99.90;;;;;;4973316;28;20587;-54
2022/06/04 13:00:15;;;;;;;2.22;2.00;;;28.60;99.90;;;;;;4973270;28;20567;-51
2022/06/04 13:02:42;;;;;;;4.82;2.40;;;28.70;99.90;;;;;;4973273;28;20246;-56
2022/06/04 13:05:10;;;;;;;3.30;2.30;;;28.80;99.90;;;;;;4973041;28;20166;-52
2022/06/04 13:07:57;;;;;;;2.35;2.15;;;28.80;99.90;;;;;;4973149;28;20177;-55
2022/06/04 13:10:26;;;;;;;4.38;2.55;;;28.80;99.90;;;;;;4972930;28;20217;-56
2022/06/04 13:13:14;;;;;;;3.55;2.28;;;28.80;99.90;;;;;;4973173;28;20174;-55
2022/06/04 13:15:54;;;;;;;3.85;2.10;;;28.90;99.90;;;;;;4972833;28;20165;-56
2022/06/04 13:18:28;;;;;;;3.42;2.30;;;29.10;99.90;;;;;;4972728;28;20170;-54
2022/06/04 13:20:58;;;;;;;3.25;2.15;;;29.20;99.90;;;;;;4973221;28;20259;-56
2022/06/04 13:23:29;;;;;;;2.88;2.20;;;29.40;99.90;;;;;;4972689;28;20162;-53